Time;durP1;ratioP1;P1;durP2;ratioP2;P2;SDS_P1;SDS_P2;PMS_P1;PMS_P2;Temp;Humidity;BMP_temperature;BMP_pressure;BME280_temperature;BME280_humidity;BME280_pressure;Samples;Min_cycle;Max_cycle;Signal;HPM_P1;HPM_P2
2022/12/03 00:01:23;;;;;;;;;;;;;;;3.33;100.00;98140.81;5071789;28;19939;-60
2022/12/03 00:03:50;;;;;;;;;;;;;;;3.43;100.00;98139.34;5071583;28;19997;-60
2022/12/03 00:06:16;;;;;;;;;;;;;;;3.36;100.00;98132.47;5071701;28;19984;-60
2022/12/03 00:08:42;;;;;;;;;;;;;;;3.36;100.00;98135.13;5071611;28;19944;-60
2022/12/03 00:11:09;;;;;;;;;;;;;;;3.23;100.00;98134.16;5071570;28;20011;-60
2022/12/03 00:13:36;;;;;;;;;;;;;;;3.20;100.00;98131.94;5071230;28;20024;-61
2022/12/03 00:16:03;;;;;;;;;;;;;;;3.32;100.00;98131.28;5071357;28;19925;-60
2022/12/03 00:18:29;;;;;;;;;;;;;;;3.61;100.00;98131.53;5071206;28;19929;-59
2022/12/03 00:20:55;;;;;;;;;;;;;;;3.55;100.00;98126.28;5063235;28;19924;-60
2022/12/03 00:23:22;;;;;;;;;;;;;;;3.70;100.00;98124.16;5071149;28;19984;-59
2022/12/03 00:25:48;;;;;;;;;;;;;;;3.74;100.00;98120.84;5070850;28;19935;-59
2022/12/03 00:28:14;;;;;;;;;;;;;;;3.83;100.00;98117.97;5071114;28;19925;-60
2022/12/03 00:30:42;;;;;;;;;;;;;;;3.87;100.00;98125.22;5070973;28;20020;-61
2022/12/03 00:33:08;;;;;;;;;;;;;;;3.98;100.00;98127.19;5071021;28;19925;-60
2022/12/03 00:35:34;;;;;;;;;;;;;;;3.82;100.00;98122.44;5070783;28;19959;-61
2022/12/03 00:38:01;;;;;;;;;;;;;;;3.78;100.00;98127.31;5070785;28;19939;-59
2022/12/03 00:40:27;;;;;;;;;;;;;;;3.85;100.00;98123.81;5070886;28;20015;-60
2022/12/03 00:42:53;;;;;;;;;;;;;;;3.88;100.00;98124.22;5070856;28;19980;-61
2022/12/03 00:45:20;;;;;;;;;;;;;;;3.79;100.00;98123.66;5070993;28;19996;-60
2022/12/03 00:47:47;;;;;;;;;;;;;;;3.75;100.00;98119.81;5070590;28;19993;-60
2022/12/03 00:50:14;;;;;;;;;;;;;;;3.68;100.00;98120.91;5070904;28;20011;-61
2022/12/03 00:52:40;;;;;;;;;;;;;;;3.65;100.00;98123.97;5070413;28;19992;-60
2022/12/03 00:55:07;;;;;;;;;;;;;;;3.68;100.00;98123.56;5070551;28;20008;-60
2022/12/03 00:57:33;;;;;;;;;;;;;;;3.63;100.00;98123.38;5070618;28;19984;-59
2022/12/03 00:59:59;;;;;;;;;;;;;;;3.65;100.00;98121.34;5070519;28;19939;-60
2022/12/03 01:02:26;;;;;;;;;;;;;;;3.62;100.00;98121.78;5070453;28;20002;-60
2022/12/03 01:04:53;;;;;;;;;;;;;;;3.69;100.00;98125.16;5070163;28;19984;-59
2022/12/03 01:07:20;;;;;;;;;;;;;;;3.64;100.00;98120.53;5069194;28;19928;-60
2022/12/03 01:09:46;;;;;;;;;;;;;;;3.44;100.00;98121.66;5070277;28;19975;-61
2022/12/03 01:12:12;;;;;;;;;;;;;;;3.42;100.00;98123.72;5070299;28;19988;-61
2022/12/03 01:14:38;;;;;;;;;;;;;;;3.56;100.00;98114.69;5070167;28;19924;-59
2022/12/03 01:17:05;;;;;;;;;;;;;;;3.43;100.00;98123.50;5069848;28;19988;-60
2022/12/03 01:19:32;;;;;;;;;;;;;;;3.30;100.00;98122.75;5069928;28;19996;-59
2022/12/03 01:22:00;;;;;;;;;;;;;;;3.28;100.00;98130.09;5069558;28;19935;-61
2022/12/03 01:24:27;;;;;;;;;;;;;;;3.18;100.00;98120.81;5069891;28;20003;-60
2022/12/03 01:26:54;;;;;;;;;;;;;;;3.20;100.00;98124.03;5069511;28;20016;-61
2022/12/03 01:29:21;;;;;;;;;;;;;;;3.17;100.00;98123.63;5069823;28;19974;-60
2022/12/03 01:34:31;;;;;;;;;;;;;;;3.23;100.00;98118.31;5069475;28;19925;-59
2022/12/03 01:36:57;;;;;;;;;;;;;;;3.12;100.00;98124.28;5069708;28;19925;-60
2022/12/03 01:39:25;;;;;;;;;;;;;;;3.14;100.00;98124.88;5069736;28;19929;-60
2022/12/03 01:41:52;;;;;;;;;;;;;;;3.16;100.00;98117.53;5069409;28;20002;-62
2022/12/03 01:44:21;;;;;;;;;;;;;;;3.18;100.00;98117.34;5069211;28;19971;-61
2022/12/03 01:46:48;;;;;;;;;;;;;;;3.17;100.00;98119.16;5069180;28;19924;-60
2022/12/03 01:49:16;;;;;;;;;;;;;;;3.15;100.00;98126.50;5051432;28;19974;-59
2022/12/03 01:51:43;;;;;;;;;;;;;;;3.19;100.00;98114.47;5069265;28;19929;-59
2022/12/03 01:54:14;;;;;;;;;;;;;;;3.07;100.00;98108.25;5069327;28;19935;-60
2022/12/03 01:56:42;;;;;;;;;;;;;;;3.01;100.00;98111.72;5069511;28;19964;-60
2022/12/03 01:59:08;;;;;;;;;;;;;;;3.18;100.00;98118.16;5069318;28;19980;-59
2022/12/03 02:01:35;;;;;;;;;;;;;;;3.18;100.00;98118.16;5069422;28;19925;-59
2022/12/03 02:04:01;;;;;;;;;;;;;;;3.18;100.00;98114.72;5069394;28;19980;-59
2022/12/03 02:06:29;;;;;;;;;;;;;;;3.17;100.00;98124.44;5069254;28;19952;-59
2022/12/03 02:08:58;;;;;;;;;;;;;;;3.14;100.00;98119.59;5061204;28;20019;-60
2022/12/03 02:11:27;;;;;;;;;;;;;;;3.11;100.00;98109.47;5069317;28;19939;-59
2022/12/03 02:13:57;;;;;;;;;;;;;;;3.05;100.00;98115.56;5068988;28;19992;-60
2022/12/03 02:16:23;;;;;;;;;;;;;;;3.08;100.00;98115.16;5069478;28;20063;-59
2022/12/03 02:18:50;;;;;;;;;;;;;;;2.94;100.00;98112.78;5051015;28;19933;-59
2022/12/03 02:21:20;;;;;;;;;;;;;;;2.98;100.00;98106.06;5069199;28;20663;-59
2022/12/03 02:23:54;;;;;;;;;;;;;;;3.07;100.00;98110.88;5068702;28;19993;-60
2022/12/03 02:26:22;;;;;;;;;;;;;;;3.14;100.00;98113.50;5069349;28;19963;-59
2022/12/03 02:28:48;;;;;;;;;;;;;;;3.13;100.00;98112.69;5069106;28;19929;-60
2022/12/03 02:31:15;;;;;;;;;;;;;;;3.06;100.00;98111.13;5069224;28;20000;-60
2022/12/03 02:33:41;;;;;;;;;;;;;;;2.92;100.00;98120.09;5069220;28;20581;-60
2022/12/03 02:36:08;;;;;;;;;;;;;;;3.03;100.00;98114.19;5069204;28;19963;-59
2022/12/03 02:38:35;;;;;;;;;;;;;;;3.12;100.00;98124.28;5069128;28;19963;-61
2022/12/03 02:41:04;;;;;;;;;;;;;;;3.13;100.00;98111.88;5069091;28;19988;-61
2022/12/03 02:43:30;;;;;;;;;;;;;;;3.06;100.00;98116.41;5069132;28;19928;-59
2022/12/03 02:45:59;;;;;;;;;;;;;;;3.18;100.00;98106.78;5069271;28;19924;-59
2022/12/03 02:48:27;;;;;;;;;;;;;;;3.15;100.00;98115.94;5069237;28;19992;-59
2022/12/03 02:50:55;;;;;;;;;;;;;;;3.19;100.00;98111.03;5068956;28;20004;-59
2022/12/03 02:53:24;;;;;;;;;;;;;;;3.24;100.00;98109.41;5069052;28;19988;-60
2022/12/03 02:55:51;;;;;;;;;;;;;;;3.26;100.00;98122.38;5069098;28;20077;-59
2022/12/03 02:58:18;;;;;;;;;;;;;;;3.31;100.00;98121.75;5067734;28;19925;-59
2022/12/03 03:00:48;;;;;;;;;;;;;;;3.36;100.00;98119.28;5066960;28;19932;-59
2022/12/03 03:03:15;;;;;;;;;;;;;;;3.44;100.00;98114.53;5069238;28;19925;-59
2022/12/03 03:05:42;;;;;;;;;;;;;;;3.47;100.00;98124.69;5069134;28;19971;-60
2022/12/03 03:08:09;;;;;;;;;;;;;;;3.28;100.00;98122.19;5068855;28;19932;-60
2022/12/03 03:10:37;;;;;;;;;;;;;;;3.27;100.00;98129.28;5068806;28;19932;-59
2022/12/03 03:13:06;;;;;;;;;;;;;;;3.23;100.00;98123.59;5068848;28;19960;-59
2022/12/03 03:15:32;;;;;;;;;;;;;;;3.21;100.00;98125.66;5051052;28;19952;-60
2022/12/03 03:18:00;;;;;;;;;;;;;;;3.07;100.00;98131.19;5069040;28;20022;-60
2022/12/03 03:20:26;;;;;;;;;;;;;;;2.96;100.00;98124.75;5069178;28;20261;-60
2022/12/03 03:22:53;;;;;;;;;;;;;;;2.91;100.00;98129.03;5068671;28;19976;-60
2022/12/03 03:25:21;;;;;;;;;;;;;;;2.86;100.00;98120.94;5069407;28;19991;-60
2022/12/03 03:27:47;;;;;;;;;;;;;;;2.97;100.00;98126.34;5068640;28;19951;-60
2022/12/03 03:30:14;;;;;;;;;;;;;;;2.90;100.00;98128.22;5070953;28;20032;-59
2022/12/03 03:32:41;;;;;;;;;;;;;;;2.85;100.00;98129.88;5072468;28;20589;-60
2022/12/03 03:35:09;;;;;;;;;;;;;;;2.79;100.00;98135.94;5072309;28;19932;-60
2022/12/03 03:37:36;;;;;;;;;;;;;;;2.94;100.00;98129.41;5072317;28;20125;-60
2022/12/03 03:40:03;;;;;;;;;;;;;;;2.85;100.00;98129.88;5072272;28;19980;-60
2022/12/03 03:42:29;;;;;;;;;;;;;;;2.81;100.00;98126.03;5072133;28;19996;-60
2022/12/03 03:44:56;;;;;;;;;;;;;;;2.82;100.00;98125.00;5063850;28;19992;-59
2022/12/03 03:47:23;;;;;;;;;;;;;;;2.85;100.00;98128.03;5072155;28;20019;-60
2022/12/03 03:49:50;;;;;;;;;;;;;;;2.78;100.00;98132.53;5071932;28;19925;-59
2022/12/03 03:52:17;;;;;;;;;;;;;;;2.84;100.00;98129.06;5073486;28;19924;-60
2022/12/03 03:54:45;;;;;;;;;;;;;;;2.75;100.00;98127.69;5073024;28;19925;-60
2022/12/03 03:57:11;;;;;;;;;;;;;;;2.78;100.00;98126.44;5071878;28;19951;-59
2022/12/03 03:59:38;;;;;;;;;;;;;;;2.71;100.00;98131.72;5071880;28;19925;-60
2022/12/03 04:02:04;;;;;;;;;;;;;;;2.75;100.00;98118.94;5071683;28;19921;-60
2022/12/03 04:04:35;;;;;;;;;;;;;;;2.85;100.00;98124.59;5071548;28;19928;-60
2022/12/03 04:07:01;;;;;;;;;;;;;;;2.90;100.00;98117.69;5071509;28;19963;-59
2022/12/03 04:09:27;;;;;;;;;;;;;;;2.90;100.00;98122.13;5071389;28;19925;-59
2022/12/03 04:14:39;;;;;;;;;;;;;;;2.85;100.00;98120.09;5071287;28;20027;-60
2022/12/03 04:17:05;;;;;;;;;;;;;;;2.88;100.00;98114.41;5071269;28;19939;-59
2022/12/03 04:19:31;;;;;;;;;;;;;;;2.83;100.00;98111.59;5071371;28;19956;-60
2022/12/03 04:24:42;;;;;;;;;;;;;;;2.76;100.00;98116.09;5069367;28;19924;-59
2022/12/03 04:29:53;;;;;;;;;;;;;;;2.74;100.00;98118.13;5071164;28;19925;-59
2022/12/03 04:37:48;;;;;;;;;;;;;;;2.79;100.00;98120.94;5071029;28;19928;-62
2022/12/03 04:42:56;;;;;;;;;;;;;;;2.77;100.00;98112.44;5069878;28;19935;-60
2022/12/03 04:45:22;;;;;;;;;;;;;;;2.76;100.00;98102.91;5070845;28;19995;-59
2022/12/03 04:47:49;;;;;;;;;;;;;;;2.87;100.00;98107.53;5071032;28;19964;-61
2022/12/03 04:50:15;;;;;;;;;;;;;;;2.96;100.00;98102.84;5070842;28;19975;-59
2022/12/03 04:52:41;;;;;;;;;;;;;;;3.05;100.00;98099.75;5066696;28;19984;-60
2022/12/03 04:55:08;;;;;;;;;;;;;;;3.04;100.00;98106.03;5070565;28;20056;-60
2022/12/03 04:57:34;;;;;;;;;;;;;;;3.01;100.00;98093.25;5070546;28;19988;-60
2022/12/03 05:00:02;;;;;;;;;;;;;;;3.08;100.00;98088.78;5070500;28;19964;-60
2022/12/03 05:02:29;;;;;;;;;;;;;;;3.22;100.00;98095.59;5070699;28;19933;-60
2022/12/03 05:04:55;;;;;;;;;;;;;;;3.23;100.00;98078.75;5070554;28;19980;-60
2022/12/03 05:07:21;;;;;;;;;;;;;;;3.12;100.00;98089.16;5070607;28;19928;-59
2022/12/03 05:09:47;;;;;;;;;;;;;;;3.09;100.00;98095.69;5070523;28;19985;-60
2022/12/03 05:12:14;;;;;;;;;;;;;;;2.96;100.00;98095.75;5070645;28;19925;-59
2022/12/03 05:14:40;;;;;;;;;;;;;;;3.00;100.00;98091.63;5070145;28;19988;-59
2022/12/03 05:17:08;;;;;;;;;;;;;;;2.93;100.00;98090.88;5070311;28;19992;-59
2022/12/03 05:22:18;;;;;;;;;;;;;;;2.96;100.00;98097.56;5050055;28;19978;-60
2022/12/03 05:24:44;;;;;;;;;;;;;;;3.11;100.00;98109.47;5068986;28;19959;-60
2022/12/03 05:27:11;;;;;;;;;;;;;;;3.19;100.00;98106.56;5070472;28;19968;-60
2022/12/03 05:29:37;;;;;;;;;;;;;;;3.22;100.00;98113.25;5070201;28;19947;-59
2022/12/03 05:32:03;;;;;;;;;;;;;;;3.23;100.00;98105.13;5070350;28;19996;-59
2022/12/03 05:34:31;;;;;;;;;;;;;;;3.12;100.00;98105.81;5070331;28;19984;-59
2022/12/03 05:36:57;;;;;;;;;;;;;;;2.93;100.00;98101.44;5062101;28;19925;-59
2022/12/03 05:39:24;;;;;;;;;;;;;;;2.92;100.00;98094.53;5070039;28;19925;-61
2022/12/03 05:44:34;;;;;;;;;;;;;;;2.96;100.00;98101.00;5069927;28;19924;-60
2022/12/03 05:47:00;;;;;;;;;;;;;;;2.95;100.00;98119.66;5069891;28;19948;-60
2022/12/03 05:49:27;;;;;;;;;;;;;;;2.93;100.00;98114.63;5069796;28;19959;-60
2022/12/03 05:51:54;;;;;;;;;;;;;;;2.96;100.00;98121.31;5068909;28;20003;-60
2022/12/03 05:54:21;;;;;;;;;;;;;;;2.83;100.00;98110.78;5065821;28;19924;-60
2022/12/03 05:56:47;;;;;;;;;;;;;;;2.87;100.00;98110.19;5069422;28;19925;-59
2022/12/03 05:59:13;;;;;;;;;;;;;;;2.81;100.00;98124.19;5069603;28;19935;-59
2022/12/03 06:01:40;;;;;;;;;;;;;;;2.83;100.00;98116.88;5069442;28;19920;-60
2022/12/03 06:04:06;;;;;;;;;;;;;;;2.75;100.00;98118.94;5069500;28;19932;-60
2022/12/03 06:06:32;;;;;;;;;;;;;;;2.77;100.00;98127.44;5069429;28;19997;-59
2022/12/03 06:09:00;;;;;;;;;;;;;;;2.64;100.00;98128.28;5069632;28;20035;-60
2022/12/03 06:11:28;;;;;;;;;;;;;;;2.61;100.00;98123.44;5069443;28;19925;-61
2022/12/03 06:13:55;;;;;;;;;;;;;;;2.66;100.00;98131.56;5069233;28;19929;-60
2022/12/03 06:16:21;;;;;;;;;;;;;;;2.81;100.00;98126.03;5069365;28;19988;-60
2022/12/03 06:18:47;;;;;;;;;;;;;;;2.68;100.00;98124.25;5069108;28;20020;-60
2022/12/03 06:21:14;;;;;;;;;;;;;;;2.67;100.00;98133.16;5068862;28;19924;-60
2022/12/03 06:23:43;;;;;;;;;;;;;;;2.66;100.00;98126.28;5065128;28;19984;-59
2022/12/03 06:26:11;;;;;;;;;;;;;;;2.68;100.00;98129.50;5069049;28;19928;-60
2022/12/03 06:28:37;;;;;;;;;;;;;;;2.66;100.00;98129.69;5069070;28;19924;-62
2022/12/03 06:31:03;;;;;;;;;;;;;;;2.74;100.00;98139.22;5069221;28;19988;-60
2022/12/03 06:33:30;;;;;;;;;;;;;;;2.69;100.00;98133.78;5069281;28;19988;-60
2022/12/03 06:35:56;;;;;;;;;;;;;;;2.67;100.00;98143.69;5060911;28;19921;-60
2022/12/03 06:38:22;;;;;;;;;;;;;;;2.68;100.00;98150.59;5069288;28;19928;-60
2022/12/03 06:40:49;;;;;;;;;;;;;;;2.67;100.00;98139.25;5069533;28;19931;-60
2022/12/03 06:43:16;;;;;;;;;;;;;;;2.70;100.00;98133.56;5069615;28;19936;-61
2022/12/03 06:45:43;;;;;;;;;;;;;;;2.69;100.00;98131.13;5069308;28;20007;-60
2022/12/03 06:48:09;;;;;;;;;;;;;;;2.73;100.00;98140.25;5069263;28;19984;-60
2022/12/03 06:50:35;;;;;;;;;;;;;;;2.63;100.00;98134.59;5069055;28;19932;-60
2022/12/03 06:53:02;;;;;;;;;;;;;;;2.53;100.00;98140.31;5065169;28;19999;-60
2022/12/03 06:55:28;;;;;;;;;;;;;;;2.48;100.00;98134.81;5069298;28;19921;-60
2022/12/03 06:57:54;;;;;;;;;;;;;;;2.57;100.00;98130.94;5069024;28;19925;-60
2022/12/03 07:00:22;;;;;;;;;;;;;;;2.65;100.00;98124.66;5069221;28;19979;-60
2022/12/03 07:02:49;;;;;;;;;;;;;;;2.68;100.00;98138.25;5069194;28;19931;-60
2022/12/03 07:05:15;;;;;;;;;;;;;;;2.70;100.00;98132.75;5073191;28;19982;-60
2022/12/03 07:07:41;;;;;;;;;;;;;;;2.60;100.00;98127.91;5073080;28;19952;-59
2022/12/03 07:10:08;;;;;;;;;;;;;;;2.54;100.00;98120.81;5072965;28;19939;-60
2022/12/03 07:12:34;;;;;;;;;;;;;;;2.55;100.00;98113.72;5072954;28;19924;-59
2022/12/03 07:15:01;;;;;;;;;;;;;;;2.47;100.00;98120.03;5072670;28;19980;-60
2022/12/03 07:17:28;;;;;;;;;;;;;;;2.45;100.00;98115.97;5072686;28;19986;-60
2022/12/03 07:19:55;;;;;;;;;;;;;;;2.44;100.00;98117.00;5072553;28;19977;-60
2022/12/03 07:22:21;;;;;;;;;;;;;;;2.46;100.00;98104.41;5070138;28;19967;-60
2022/12/03 07:24:47;;;;;;;;;;;;;;;2.50;100.00;98108.28;5053505;28;19924;-60
2022/12/03 07:27:14;;;;;;;;;;;;;;;2.54;100.00;98112.09;5072483;28;19928;-60
2022/12/03 07:29:40;;;;;;;;;;;;;;;2.45;100.00;98108.88;5072483;28;19924;-60
2022/12/03 07:32:06;;;;;;;;;;;;;;;2.52;100.00;98100.94;5072466;28;19990;-60
2022/12/03 07:34:34;;;;;;;;;;;;;;;2.50;100.00;98105.63;5072239;28;19939;-60
2022/12/03 07:37:00;;;;;;;;;;;;;;;2.49;100.00;98107.47;5072331;28;20075;-59
2022/12/03 07:39:27;;;;;;;;;;;;;;;2.54;100.00;98101.53;5072210;28;19968;-61
2022/12/03 07:41:53;;;;;;;;;;;;;;;2.58;100.00;98108.84;5072345;28;20004;-60
2022/12/03 07:44:19;;;;;;;;;;;;;;;2.66;100.00;98105.19;5072411;28;19964;-60
2022/12/03 07:46:46;;;;;;;;;;;;;;;2.86;100.00;98113.00;5072058;28;19925;-59
2022/12/03 07:49:12;;;;;;;;;;;;;;;2.81;100.00;98102.28;5072141;28;19921;-60
2022/12/03 07:51:40;;;;;;;;;;;;;;;2.73;100.00;98098.03;5072136;28;19964;-60
2022/12/03 07:54:06;;;;;;;;;;;;;;;2.65;100.00;98100.94;5068192;28;19996;-59
2022/12/03 07:56:33;;;;;;;;;;;;;;;2.59;100.00;98104.38;5071918;28;19925;-60
2022/12/03 07:58:59;;;;;;;;;;;;;;;2.61;100.00;98107.63;5071855;28;19936;-60
2022/12/03 08:01:25;;;;;;;;;;;;;;;2.62;100.00;98111.88;5071939;28;20001;-60
2022/12/03 08:03:52;;;;;;;;;;;;;;;2.60;100.00;98101.53;5072349;28;20534;-60
2022/12/03 08:06:18;;;;;;;;;;;;;;;2.63;100.00;98105.59;5072438;28;19935;-60
2022/12/03 08:08:46;;;;;;;;;;;;;;;2.69;100.00;98102.13;5072536;28;19992;-59
2022/12/03 08:11:13;;;;;;;;;;;;;;;2.77;100.00;98099.25;5072623;28;19921;-61
2022/12/03 08:13:40;;;;;;;;;;;;;;;2.71;100.00;98108.00;5071557;28;19992;-60
2022/12/03 08:16:13;;;;;;;;;;;;;;;2.66;100.00;98100.69;5070810;28;19935;-59
2022/12/03 08:18:39;;;;;;;;;;;;;;;2.53;100.00;98098.13;5071455;28;19925;-60
2022/12/03 08:21:06;;;;;;;;;;;;;;;2.50;100.00;98089.81;5071301;28;19947;-62
2022/12/03 08:23:34;;;;;;;;;;;;;;;2.54;100.00;98094.44;5067199;28;19927;-60
2022/12/03 08:26:02;;;;;;;;;;;;;;;2.60;100.00;98085.72;5071243;28;19960;-60
2022/12/03 08:28:29;;;;;;;;;;;;;;;2.59;100.00;98091.22;5072261;28;19999;-61
2022/12/03 08:30:59;;;;;;;;;;;;;;;2.47;100.00;98083.13;5072374;28;19951;-60
2022/12/03 08:33:27;;;;;;;;;;;;;;;2.59;100.00;98083.31;5072809;28;19936;-60
2022/12/03 08:35:53;;;;;;;;;;;;;;;2.63;100.00;98089.78;5072162;28;20001;-59
2022/12/03 08:38:21;;;;;;;;;;;;;;;2.78;100.00;98087.69;5072446;28;20452;-60
2022/12/03 08:40:49;;;;;;;;;;;;;;;2.68;100.00;98088.13;5072426;28;19929;-61
2022/12/03 08:43:19;;;;;;;;;;;;;;;2.69;100.00;98084.47;5072656;28;19975;-60
2022/12/03 08:45:45;;;;;;;;;;;;;;;2.79;100.00;98093.75;5072377;28;19984;-60
2022/12/03 08:48:31;;;;;;;;;;;;;;;2.70;100.00;98094.00;5071773;28;19925;-60
2022/12/03 08:50:58;;;;;;;;;;;;;;;2.67;100.00;98090.97;5063881;28;19925;-60
2022/12/03 08:53:28;;;;;;;;;;;;;;;2.70;100.00;98087.91;5067312;28;19964;-59
2022/12/03 08:55:55;;;;;;;;;;;;;;;2.61;100.00;98082.06;5070689;28;19925;-60
2022/12/03 08:58:24;;;;;;;;;;;;;;;2.64;100.00;98096.66;5086467;28;19925;-61
2022/12/03 09:00:52;;;;;;;;;;;;;;;2.66;100.00;98103.34;5070758;28;19984;-59
2022/12/03 09:03:18;;;;;;;;;;;;;;;2.62;100.00;98093.44;5070655;28;20007;-59
2022/12/03 09:05:45;;;;;;;;;;;;;;;2.68;100.00;98100.50;5070731;28;19939;-60
2022/12/03 09:08:11;;;;;;;;;;;;;;;2.66;100.00;98095.44;5071018;28;19981;-60
2022/12/03 09:10:37;;;;;;;;;;;;;;;2.67;100.00;98102.31;5070972;28;20427;-60
2022/12/03 09:13:04;;;;;;;;;;;;;;;2.75;100.00;98100.50;5070694;28;19928;-60
2022/12/03 09:15:32;;;;;;;;;;;;;;;2.68;100.00;98103.13;5070673;28;19996;-59
2022/12/03 09:17:58;;;;;;;;;;;;;;;2.67;100.00;98097.06;5062735;28;19924;-59
2022/12/03 09:20:24;;;;;;;;;;;;;;;2.86;100.00;98098.00;5070558;28;19988;-59
2022/12/03 09:22:51;;;;;;;;;;;;;;;2.86;100.00;98091.91;5066197;28;20834;-59
2022/12/03 09:25:17;;;;;;;;;;;;;;;2.94;100.00;98103.03;5070274;28;19935;-60
2022/12/03 09:27:43;;;;;;;;;;;;;;;2.90;100.00;98106.31;5069017;28;20032;-61
2022/12/03 09:30:10;;;;;;;;;;;;;;;2.78;100.00;98103.53;5070390;28;19925;-60
2022/12/03 09:32:38;;;;;;;;;;;;;;;2.94;100.00;98108.31;5070190;28;19967;-60
2022/12/03 09:35:04;;;;;;;;;;;;;;;3.06;100.00;98101.38;5070184;28;20012;-61
2022/12/03 09:37:30;;;;;;;;;;;;;;;3.16;100.00;98096.44;5070474;28;19980;-61
2022/12/03 09:39:57;;;;;;;;;;;;;;;3.21;100.00;98085.25;5061898;28;19979;-60
2022/12/03 09:42:24;;;;;;;;;;;;;;;3.24;100.00;98090.94;5070116;28;20016;-61
2022/12/03 09:44:50;;;;;;;;;;;;;;;3.10;100.00;98093.81;5069699;28;19998;-60
2022/12/03 09:47:17;;;;;;;;;;;;;;;3.02;100.00;98079.06;5070051;28;19925;-60
2022/12/03 09:49:45;;;;;;;;;;;;;;;3.03;100.00;98085.94;5069864;28;20028;-61
2022/12/03 09:52:14;;;;;;;;;;;;;;;2.94;100.00;98086.41;5068584;28;19984;-60
2022/12/03 09:54:40;;;;;;;;;;;;;;;2.88;100.00;98090.69;5067573;28;19941;-59
2022/12/03 09:57:06;;;;;;;;;;;;;;;2.98;100.00;98093.69;5069745;28;20000;-61
2022/12/03 09:59:34;;;;;;;;;;;;;;;3.03;100.00;98096.50;5069841;28;19924;-61
2022/12/03 10:02:00;;;;;;;;;;;;;;;2.97;100.00;98092.06;5069688;28;19979;-60
2022/12/03 10:04:27;;;;;;;;;;;;;;;3.15;100.00;98091.38;5069662;28;19925;-61
2022/12/03 10:06:56;;;;;;;;;;;;;;;3.18;100.00;98099.69;5069291;28;19941;-60
2022/12/03 10:09:24;;;;;;;;;;;;;;;3.09;100.00;98089.59;5069680;28;19931;-60
2022/12/03 10:11:50;;;;;;;;;;;;;;;2.96;100.00;98082.53;5069267;28;19971;-60
2022/12/03 10:14:17;;;;;;;;;;;;;;;2.99;100.00;98087.41;5069532;28;19984;-62
2022/12/03 10:16:43;;;;;;;;;;;;;;;2.93;100.00;98090.88;5068949;28;20031;-62
2022/12/03 10:19:15;;;;;;;;;;;;;;;2.93;100.00;98082.16;5069312;28;19925;-61
2022/12/03 10:21:42;;;;;;;;;;;;;;;2.89;100.00;98084.41;5069221;28;19971;-61
2022/12/03 10:24:19;;;;;;;;;;;;;;;2.89;100.00;98081.75;5065104;28;19976;-60
2022/12/03 10:26:46;;;;;;;;;;;;;;;2.89;100.00;98083.59;5068971;28;19996;-61
2022/12/03 10:29:13;;;;;;;;;;;;;;;2.96;100.00;98066.72;5069068;28;19925;-60
2022/12/03 10:31:40;;;;;;;;;;;;;;;3.02;100.00;98073.78;5068916;28;19984;-61
2022/12/03 10:34:06;;;;;;;;;;;;;;;2.91;100.00;98066.53;5068837;28;20412;-60
2022/12/03 10:36:32;;;;;;;;;;;;;;;2.92;100.00;98067.34;5068794;28;19924;-60
2022/12/03 10:39:06;;;;;;;;;;;;;;;2.84;100.00;98064.94;5073029;28;19932;-61
2022/12/03 10:41:34;;;;;;;;;;;;;;;2.84;100.00;98059.69;5075710;28;19932;-60
2022/12/03 10:44:11;;;;;;;;;;;;;;;2.81;100.00;98058.28;5075666;28;19967;-59
2022/12/03 10:46:37;;;;;;;;;;;;;;;2.86;100.00;98057.63;5075578;28;19925;-60
2022/12/03 10:49:07;;;;;;;;;;;;;;;2.78;100.00;98061.31;5075805;28;19929;-60
2022/12/03 10:51:34;;;;;;;;;;;;;;;2.71;100.00;98050.81;5075602;28;19928;-60
2022/12/03 10:54:01;;;;;;;;;;;;;;;2.79;100.00;98049.75;5071653;28;20027;-60
2022/12/03 10:56:28;;;;;;;;;;;;;;;2.79;100.00;98051.56;5075734;28;19964;-60
2022/12/03 10:58:55;;;;;;;;;;;;;;;2.73;100.00;98045.31;5075284;28;19928;-61
2022/12/03 11:01:23;;;;;;;;;;;;;;;2.74;100.00;98044.28;5075563;28;19924;-60
2022/12/03 11:03:50;;;;;;;;;;;;;;;2.78;100.00;98044.69;5075582;28;19928;-60
2022/12/03 11:06:17;;;;;;;;;;;;;;;2.84;100.00;98042.03;5075610;28;20012;-59
2022/12/03 11:08:45;;;;;;;;;;;;;;;2.79;100.00;98046.28;5075401;28;20011;-60
2022/12/03 11:11:16;;;;;;;;;;;;;;;2.84;100.00;98051.75;5075637;28;20016;-60
2022/12/03 11:13:46;;;;;;;;;;;;;;;2.82;100.00;98046.69;5075393;28;19936;-61
2022/12/03 11:16:34;;;;;;;;;;;;;;;2.85;100.00;98040.97;5075551;28;20047;-61
2022/12/03 11:19:01;;;;;;;;;;;;;;;2.84;100.00;98030.66;5067758;28;20003;-60
2022/12/03 11:21:28;;;;;;;;;;;;;;;2.83;100.00;98031.66;5075568;28;19929;-60
2022/12/03 11:24:02;;;;;;;;;;;;;;;2.75;100.00;98024.81;5071212;28;20024;-60
2022/12/03 11:26:47;;;;;;;;;;;;;;;2.75;100.00;98018.75;5075444;28;19935;-61
2022/12/03 11:29:13;;;;;;;;;;;;;;;2.82;100.00;98012.41;5069551;28;20003;-60
2022/12/03 11:31:42;;;;;;;;;;;;;;;2.83;100.00;98016.66;5075518;28;20116;-60
2022/12/03 11:34:28;;;;;;;;;;;;;;;2.86;100.00;98018.88;5075396;28;20377;-60
2022/12/03 11:37:13;;;;;;;;;;;;;;;2.91;100.00;98018.25;5075115;28;19924;-60
2022/12/03 11:39:58;;;;;;;;;;;;;;;2.98;100.00;98011.09;5075114;28;20015;-60
2022/12/03 11:42:28;;;;;;;;;;;;;;;2.94;100.00;98007.28;5075199;28;19948;-61
2022/12/03 11:45:14;;;;;;;;;;;;;;;2.93;100.00;98006.47;5075119;28;19933;-61
2022/12/03 11:47:43;;;;;;;;;;;;;;;3.12;100.00;98010.81;5075253;28;19984;-61
2022/12/03 11:50:19;;;;;;;;;;;;;;;3.12;100.00;98004.72;5072496;28;19960;-60
2022/12/03 11:52:47;;;;;;;;;;;;;;;3.17;100.00;98002.25;5067877;28;19952;-60
2022/12/03 11:55:15;;;;;;;;;;;;;;;3.22;100.00;97999.75;5071878;28;19925;-60
2022/12/03 11:57:43;;;;;;;;;;;;;;;3.16;100.00;97996.16;5071823;28;19936;-60
2022/12/03 12:00:16;;;;;;;;;;;;;;;3.19;100.00;97995.72;5071970;28;19924;-61
2022/12/03 12:02:43;;;;;;;;;;;;;;;3.20;100.00;97989.44;5071662;28;19947;-61
2022/12/03 12:05:24;;;;;;;;;;;;;;;3.20;100.00;97989.44;5071751;28;19981;-61
2022/12/03 12:07:50;;;;;;;;;;;;;;;3.02;100.00;97981.44;5053963;28;19932;-61
2022/12/03 12:10:32;;;;;;;;;;;;;;;2.95;100.00;97983.31;5071927;28;20390;-61
2022/12/03 12:12:58;;;;;;;;;;;;;;;3.05;100.00;97973.09;5064037;28;19999;-60
2022/12/03 12:15:41;;;;;;;;;;;;;;;3.09;100.00;97979.59;5071628;28;19984;-60
2022/12/03 12:18:26;;;;;;;;;;;;;;;3.13;100.00;97978.13;5064820;28;19920;-60
2022/12/03 12:20:53;;;;;;;;;;;;;;;3.09;100.00;97968.22;5071684;28;20016;-60
2022/12/03 12:23:20;;;;;;;;;;;;;;;3.17;100.00;97968.75;5067447;28;19985;-59
2022/12/03 12:25:47;;;;;;;;;;;;;;;3.22;100.00;97963.63;5071341;28;19948;-60
2022/12/03 12:28:13;;;;;;;;;;;;;;;3.20;100.00;97963.06;5071787;28;20039;-60
2022/12/03 12:30:39;;;;;;;;;;;;;;;3.34;100.00;97955.84;5071381;28;19925;-60
2022/12/03 12:33:17;;;;;;;;;;;;;;;3.23;100.00;97957.34;5071436;28;19971;-60
2022/12/03 12:35:43;;;;;;;;;;;;;;;3.26;100.00;97953.47;5071190;28;19929;-59
2022/12/03 12:38:14;;;;;;;;;;;;;;;3.37;100.00;97949.31;5071142;28;19960;-60
2022/12/03 12:40:43;;;;;;;;;;;;;;;3.36;100.00;97953.78;5070874;28;19925;-60
2022/12/03 12:43:14;;;;;;;;;;;;;;;3.50;100.00;97950.00;5071203;28;19920;-62
2022/12/03 12:45:41;;;;;;;;;;;;;;;3.50;100.00;97943.91;5070957;28;19989;-60
2022/12/03 12:48:14;;;;;;;;;;;;;;;3.49;100.00;97943.13;5071030;28;19992;-60
2022/12/03 12:50:41;;;;;;;;;;;;;;;3.35;100.00;97948.72;5071017;28;19956;-59
2022/12/03 12:53:11;;;;;;;;;;;;;;;3.37;100.00;97949.31;5067037;28;19964;-60
2022/12/03 12:55:39;;;;;;;;;;;;;;;3.47;100.00;97949.63;5070648;28;19925;-60
2022/12/03 12:58:07;;;;;;;;;;;;;;;3.36;100.00;97947.69;5070577;28;20102;-60
2022/12/03 13:00:33;;;;;;;;;;;;;;;3.35;100.00;97946.88;5070764;28;19929;-60
2022/12/03 13:03:01;;;;;;;;;;;;;;;3.28;100.00;97940.06;5070263;28;19925;-60
2022/12/03 13:05:32;;;;;;;;;;;;;;;3.23;100.00;97938.88;5070647;28;19991;-59
2022/12/03 13:07:58;;;;;;;;;;;;;;;3.41;100.00;97946.03;5062498;28;19972;-60
2022/12/03 13:10:33;;;;;;;;;;;;;;;3.41;100.00;97947.84;5070401;28;20012;-60
2022/12/03 13:13:07;;;;;;;;;;;;;;;3.29;100.00;97947.75;5062272;28;19929;-60
2022/12/03 13:15:38;;;;;;;;;;;;;;;3.40;100.00;97941.78;5070097;28;20004;-60